Time;durP1;ratioP1;P1;durP2;ratioP2;P2;SDS_P1;SDS_P2;PMS_P1;PMS_P2;Temp;Humidity;BMP_temperature;BMP_pressure;BME280_temperature;BME280_humidity;BME280_pressure;Samples;Min_cycle;Max_cycle;Signal;HPM_P1;HPM_P2
2023/06/30 00:00:47;;;;;;;8.25;3.83;;;;;;;20.00;99.30;100380.56;5091896;28;20468;-73
2023/06/30 00:03:15;;;;;;;8.10;4.28;;;;;;;20.03;98.81;100375.31;5073717;28;20062;-71
2023/06/30 00:05:40;;;;;;;6.57;3.45;;;;;;;20.11;97.89;100391.00;5086095;28;20020;-73
2023/06/30 00:08:08;;;;;;;4.53;2.90;;;;;;;20.06;98.98;100395.41;5092317;28;20042;-74
2023/06/30 00:10:34;;;;;;;8.50;3.40;;;;;;;20.06;98.77;100385.78;5091457;28;20092;-70
2023/06/30 00:12:59;;;;;;;5.43;3.40;;;;;;;20.20;97.95;100399.72;5091868;28;20020;-71
2023/06/30 00:15:25;;;;;;;6.80;3.72;;;;;;;20.07;98.05;100370.94;5091327;28;20031;-74
2023/06/30 00:17:52;;;;;;;5.95;3.05;;;;;;;20.29;97.19;100405.81;5091610;28;20089;-73
2023/06/30 00:20:18;;;;;;;7.63;3.75;;;;;;;20.21;96.90;100382.22;5091089;28;20403;-70
2023/06/30 00:22:44;;;;;;;5.15;3.10;;;;;;;20.09;96.74;100408.47;5091609;28;20026;-73
2023/06/30 00:25:09;;;;;;;6.28;3.67;;;;;;;19.83;98.05;100397.19;5091460;28;20081;-70
2023/06/30 00:27:35;;;;;;;5.93;3.30;;;;;;;19.77;98.72;100401.56;5091509;28;20024;-71
2023/06/30 00:30:00;;;;;;;5.30;3.55;;;;;;;19.56;97.97;100340.47;5072909;28;20035;-73
2023/06/30 00:32:31;;;;;;;7.35;3.63;;;;;;;19.92;97.18;100401.53;5087065;28;20039;-70
2023/06/30 00:34:57;;;;;;;6.07;3.45;;;;;;;19.84;96.77;100385.84;5090442;28;20028;-71
2023/06/30 00:37:22;;;;;;;5.47;3.25;;;;;;;19.91;97.41;100396.31;5091246;28;20050;-71
2023/06/30 00:39:47;;;;;;;5.75;3.65;;;;;;;19.72;96.82;100350.03;5091024;28;20064;-73
2023/06/30 00:42:13;;;;;;;4.53;3.53;;;;;;;19.83;96.85;100385.88;5091037;28;20471;-70
2023/06/30 00:44:38;;;;;;;7.03;3.63;;;;;;;19.96;96.56;100389.31;5091317;28;20023;-72
2023/06/30 00:47:05;;;;;;;5.82;3.53;;;;;;;20.00;96.46;100399.78;5090285;28;20036;-71
2023/06/30 00:49:31;;;;;;;6.25;3.58;;;;;;;19.94;96.33;100399.81;5090617;28;20387;-76
2023/06/30 00:51:57;;;;;;;4.78;3.58;;;;;;;19.75;97.68;100401.56;5090946;28;20050;-71
2023/06/30 00:54:23;;;;;;;5.03;3.35;;;;;;;19.80;96.90;100402.44;5091220;28;20032;-73
2023/06/30 00:56:48;;;;;;;6.60;3.50;;;;;;;19.79;96.87;100402.41;5091408;28;20020;-75
2023/06/30 00:59:14;;;;;;;7.65;3.75;;;;;;;19.69;95.92;100371.00;5091178;28;20031;-73
2023/06/30 01:01:53;;;;;;;6.80;3.75;;;;;;;19.64;96.22;100361.41;5090655;28;20023;-79
2023/06/30 01:04:52;;;;;;;6.05;3.72;;;;;;;19.91;96.71;100404.19;5073122;28;20024;-77
2023/06/30 01:07:27;;;;;;;9.27;3.78;;;;;;;19.92;96.33;100409.41;5028219;28;20036;-76
2023/06/30 01:09:58;;;;;;;7.97;3.60;;;;;;;19.86;96.41;100414.66;4991918;28;20168;-77
2023/06/30 01:12:25;;;;;;;7.15;3.50;;;;;;;19.70;97.73;100409.44;5021898;28;20522;-72
2023/06/30 01:14:52;;;;;;;8.60;3.70;;;;;;;19.71;97.78;100408.56;5007795;28;20029;-76
2023/06/30 01:17:20;;;;;;;8.73;4.10;;;;;;;19.78;96.64;100406.78;5007920;28;20049;-72
2023/06/30 01:19:49;;;;;;;5.60;3.28;;;;;;;19.71;96.39;100397.19;5008347;28;20062;-75
2023/06/30 01:22:31;;;;;;;7.53;3.83;;;;;;;19.64;96.65;100395.44;5008073;28;20084;-73
2023/06/30 01:25:04;;;;;;;10.35;4.03;;;;;;;19.73;96.70;100406.78;5007475;28;20038;-75
2023/06/30 01:27:30;;;;;;;14.70;4.15;;;;;;;19.73;96.42;100403.31;5007870;28;20029;-73
2023/06/30 01:29:56;;;;;;;8.55;4.07;;;;;;;19.88;95.90;100405.91;5008698;28;20077;-75
2023/06/30 01:32:21;;;;;;;6.40;3.78;;;;;;;19.79;95.84;100403.31;5007955;28;20064;-72
2023/06/30 01:34:47;;;;;;;10.30;3.70;;;;;;;19.76;95.74;100394.56;5008004;28;20117;-75
2023/06/30 01:37:14;;;;;;;9.85;4.13;;;;;;;19.51;97.32;100398.09;5007517;28;20042;-73
2023/06/30 01:39:40;;;;;;;7.68;3.90;;;;;;;19.31;99.12;100389.38;4991104;28;20041;-75
2023/06/30 01:42:06;;;;;;;8.00;3.85;;;;;;;18.83;100.00;100366.66;5007456;28;20057;-76
2023/06/30 01:44:33;;;;;;;6.57;3.75;;;;;;;19.06;100.00;100405.94;5033862;28;20041;-72
2023/06/30 01:46:59;;;;;;;5.07;3.88;;;;;;;19.07;100.00;100398.97;5088772;28;20097;-78
2023/06/30 01:49:25;;;;;;;5.38;3.60;;;;;;;19.03;100.00;100405.94;5089992;28;20024;-74
2023/06/30 01:51:51;;;;;;;4.82;3.33;;;;;;;18.86;100.00;100395.41;5089890;28;20078;-73
2023/06/30 01:54:16;;;;;;;7.65;3.70;;;;;;;18.78;100.00;100380.59;5090049;28;20032;-78
2023/06/30 01:56:49;;;;;;;5.97;3.95;;;;;;;18.75;100.00;100394.53;5089350;28;20012;-79
2023/06/30 01:59:15;;;;;;;6.72;3.72;;;;;;;18.48;100.00;100387.47;5072159;28;20144;-74
2023/06/30 02:01:41;;;;;;;6.68;3.78;;;;;;;18.43;100.00;100392.72;5089621;28;20094;-79
2023/06/30 02:04:08;;;;;;;5.93;3.63;;;;;;;18.40;100.00;100384.84;5090093;28;20024;-76
2023/06/30 02:06:34;;;;;;;9.35;4.20;;;;;;;18.35;100.00;100383.97;5089395;28;20016;-78
2023/06/30 02:08:59;;;;;;;6.80;3.75;;;;;;;18.22;100.00;100381.31;5089405;28;20028;-73
2023/06/30 02:11:25;;;;;;;7.38;4.30;;;;;;;18.16;100.00;100377.81;5089777;28;20023;-76
2023/06/30 02:13:51;;;;;;;7.53;4.15;;;;;;;18.22;100.00;100388.28;5089515;28;20032;-75
2023/06/30 02:16:16;;;;;;;8.00;3.97;;;;;;;18.04;100.00;100373.38;5089454;28;20028;-73
2023/06/30 02:18:41;;;;;;;5.63;4.00;;;;;;;18.05;100.00;100385.59;5090053;28;20032;-73
2023/06/30 02:21:07;;;;;;;6.95;4.05;;;;;;;17.93;100.00;100384.63;5088929;28;20028;-76
2023/06/30 02:23:32;;;;;;;8.25;4.00;;;;;;;17.84;100.00;100389.78;5089864;28;20044;-75
2023/06/30 02:25:58;;;;;;;6.65;4.07;;;;;;;17.63;100.00;100388.81;5089166;28;20036;-74
2023/06/30 02:28:23;;;;;;;4.88;3.72;;;;;;;17.24;100.00;100351.09;5089988;28;20024;-73
2023/06/30 02:30:49;;;;;;;7.38;4.30;;;;;;;17.40;100.00;100391.25;5071415;28;20414;-74
2023/06/30 02:33:14;;;;;;;8.45;3.92;;;;;;;17.39;100.00;100396.44;5089681;28;20036;-72
2023/06/30 02:35:40;;;;;;;7.05;4.57;;;;;;;17.36;100.00;100383.38;5088941;28;20024;-74
2023/06/30 02:38:06;;;;;;;6.68;4.40;;;;;;;17.40;100.00;100390.38;5089442;28;20486;-73
2023/06/30 02:40:32;;;;;;;7.35;4.05;;;;;;;17.60;100.00;100399.22;5070920;28;20113;-72
2023/06/30 02:42:58;;;;;;;6.03;4.13;;;;;;;17.71;100.00;100398.44;5089533;28;20459;-72
2023/06/30 02:45:23;;;;;;;14.60;4.38;;;;;;;17.78;100.00;100405.41;5071380;28;20024;-72
2023/06/30 02:47:49;;;;;;;5.85;3.78;;;;;;;17.82;100.00;100394.16;5089218;28;20027;-71
2023/06/30 02:50:15;;;;;;;6.28;4.10;;;;;;;17.88;100.00;100402.00;5089092;28;20474;-73
2023/06/30 02:52:40;;;;;;;7.68;3.85;;;;;;;17.72;100.00;100366.22;5089225;28;20043;-75
2023/06/30 02:55:06;;;;;;;6.90;4.38;;;;;;;17.96;100.00;100391.63;5089591;28;20043;-74
2023/06/30 02:57:31;;;;;;;6.50;4.28;;;;;;;17.87;100.00;100386.31;5092223;28;20447;-74
2023/06/30 02:59:57;;;;;;;8.23;4.13;;;;;;;18.01;100.00;100399.50;5093263;28;20042;-74
2023/06/30 03:02:22;;;;;;;8.90;4.20;;;;;;;17.91;100.00;100388.09;5069967;28;20474;-72
2023/06/30 03:04:47;;;;;;;5.82;4.03;;;;;;;18.01;100.00;100396.91;5069775;28;20531;-72
2023/06/30 03:07:13;;;;;;;8.40;4.07;;;;;;;17.93;100.00;100397.69;5070138;28;20045;-73
2023/06/30 03:09:39;;;;;;;9.93;4.10;;;;;;;18.02;100.00;100398.63;5069580;28;20115;-73
2023/06/30 03:12:05;;;;;;;7.65;4.18;;;;;;;18.00;100.00;100403.84;5070376;28;20044;-72
2023/06/30 03:14:30;;;;;;;6.43;4.10;;;;;;;17.43;100.00;100403.44;5069797;28;20123;-73
2023/06/30 03:16:55;;;;;;;9.07;4.30;;;;;;;16.97;100.00;100407.41;5069968;28;20730;-77
2023/06/30 03:19:21;;;;;;;8.35;4.45;;;;;;;17.14;100.00;100414.50;5069538;28;20152;-72
2023/06/30 03:21:46;;;;;;;7.75;4.95;;;;;;;17.27;100.00;100418.09;5053389;28;20043;-72
2023/06/30 03:24:12;;;;;;;12.45;4.30;;;;;;;17.24;100.00;100423.28;5069685;28;20021;-75
2023/06/30 03:26:37;;;;;;;4.88;3.75;;;;;;;17.22;100.00;100406.75;5070015;28;20402;-74
2023/06/30 03:29:03;;;;;;;11.20;4.68;;;;;;;17.13;100.00;100378.84;5062903;28;20502;-74
2023/06/30 03:31:28;;;;;;;9.00;4.45;;;;;;;17.55;100.00;100420.94;5050531;28;20033;-72
2023/06/30 03:33:54;;;;;;;9.20;4.82;;;;;;;17.42;100.00;100375.59;5066370;28;20036;-75
2023/06/30 03:36:19;;;;;;;5.00;4.13;;;;;;;17.73;100.00;100413.25;5072582;28;20090;-75
2023/06/30 03:38:44;;;;;;;6.30;3.97;;;;;;;17.84;100.00;100417.66;5072953;28;20382;-75
2023/06/30 03:41:10;;;;;;;7.75;4.53;;;;;;;17.93;100.00;100423.81;5072711;28;20059;-75
2023/06/30 03:43:35;;;;;;;7.85;4.90;;;;;;;18.02;100.00;100417.78;5072739;28;20441;-78
2023/06/30 03:46:01;;;;;;;6.43;4.80;;;;;;;17.93;100.00;100415.97;5054600;28;20457;-74
2023/06/30 03:48:26;;;;;;;7.28;5.13;;;;;;;17.82;100.00;100412.41;5072464;28;20023;-72
2023/06/30 03:50:53;;;;;;;6.32;4.47;;;;;;;17.75;100.00;100411.50;5072261;28;20035;-74
2023/06/30 03:53:19;;;;;;;7.50;4.78;;;;;;;17.87;100.00;100413.31;5072576;28;20060;-73
2023/06/30 03:55:44;;;;;;;9.18;5.10;;;;;;;17.74;100.00;100404.50;5066445;28;20138;-72
2023/06/30 03:58:10;;;;;;;7.93;5.10;;;;;;;17.73;100.00;100396.69;5049914;28;20051;-71
2023/06/30 04:00:35;;;;;;;8.18;4.93;;;;;;;17.78;100.00;100402.81;5049977;28;20080;-74
2023/06/30 04:03:01;;;;;;;8.80;5.40;;;;;;;17.85;100.00;100407.22;5066606;28;20040;-75
2023/06/30 04:05:27;;;;;;;7.85;6.18;;;;;;;17.86;100.00;100406.34;5049560;28;20037;-72
2023/06/30 04:07:52;;;;;;;6.55;5.45;;;;;;;17.86;100.00;100401.13;5049128;28;20503;-72
2023/06/30 04:10:18;;;;;;;7.68;5.90;;;;;;;17.76;100.00;100376.69;5049781;28;20048;-71
2023/06/30 04:12:43;;;;;;;8.65;6.05;;;;;;;17.79;100.00;100376.72;5049677;28;20411;-71
2023/06/30 04:15:10;;;;;;;7.65;6.40;;;;;;;17.98;100.00;100399.47;5049651;28;20116;-71
2023/06/30 04:17:36;;;;;;;9.48;5.80;;;;;;;17.88;100.00;100381.13;5049654;28;20115;-75
2023/06/30 04:20:08;;;;;;;7.45;5.82;;;;;;;18.08;100.00;100398.66;5049456;28;20036;-71
2023/06/30 04:22:35;;;;;;;9.00;6.45;;;;;;;17.83;100.00;100371.50;5049349;28;20491;-72
2023/06/30 04:25:00;;;;;;;6.40;5.68;;;;;;;18.08;100.00;100412.59;5049525;28;20048;-76
2023/06/30 04:27:26;;;;;;;7.80;6.53;;;;;;;18.05;100.00;100401.25;5066917;28;20458;-75
2023/06/30 04:29:51;;;;;;;9.18;6.32;;;;;;;18.16;100.00;100411.78;5071882;28;20040;-72
2023/06/30 04:32:17;;;;;;;8.85;6.68;;;;;;;18.16;100.00;100412.63;5071542;28;20111;-72
2023/06/30 04:34:42;;;;;;;11.23;6.47;;;;;;;18.21;100.00;100418.75;5071839;28;20028;-73
2023/06/30 04:37:08;;;;;;;9.10;6.05;;;;;;;18.21;100.00;100403.06;5071739;28;20479;-74
2023/06/30 04:39:34;;;;;;;12.25;6.53;;;;;;;18.26;100.00;100413.56;5073903;28;20048;-75
2023/06/30 04:41:59;;;;;;;8.55;5.85;;;;;;;18.21;100.00;100412.66;5071789;28;20557;-73
2023/06/30 04:44:25;;;;;;;9.10;6.10;;;;;;;18.33;100.00;100420.56;5071655;28;20024;-78
2023/06/30 04:46:50;;;;;;;8.55;6.38;;;;;;;18.31;100.00;100398.75;5071164;28;20111;-76
2023/06/30 04:49:35;;;;;;;8.00;5.95;;;;;;;18.47;100.00;100411.88;5089022;28;20036;-70
2023/06/30 04:52:01;;;;;;;7.68;5.95;;;;;;;18.47;100.00;100407.53;5089060;28;20097;-71
2023/06/30 04:54:26;;;;;;;8.98;5.75;;;;;;;18.59;100.00;100425.88;5089074;28;20084;-71
2023/06/30 04:56:51;;;;;;;7.53;5.78;;;;;;;18.69;100.00;100431.13;5089092;28;20031;-71
2023/06/30 04:59:17;;;;;;;7.68;6.10;;;;;;;18.64;100.00;100415.44;5088989;28;20039;-73
2023/06/30 05:01:42;;;;;;;9.80;6.45;;;;;;;18.74;100.00;100427.66;5088744;28;20190;-73
2023/06/30 05:04:08;;;;;;;6.90;5.63;;;;;;;18.89;100.00;100433.78;5088888;28;20157;-74
2023/06/30 05:06:33;;;;;;;9.35;6.40;;;;;;;18.78;100.00;100396.28;5088820;28;20031;-71
2023/06/30 05:08:58;;;;;;;7.18;6.20;;;;;;;19.01;100.00;100430.38;5072025;28;20028;-72
2023/06/30 05:11:24;;;;;;;10.18;6.00;;;;;;;18.96;100.00;100432.97;5088879;28;20032;-73
2023/06/30 05:13:49;;;;;;;8.07;6.18;;;;;;;19.02;100.00;100437.34;5088723;28;20032;-76
2023/06/30 05:16:15;;;;;;;8.95;5.93;;;;;;;18.96;100.00;100425.13;5088603;28;20629;-75
2023/06/30 05:18:40;;;;;;;9.80;6.13;;;;;;;19.14;100.00;100432.13;5088819;28;20375;-77
2023/06/30 05:21:08;;;;;;;7.40;5.88;;;;;;;19.23;100.00;100432.13;5087723;28;20059;-77
2023/06/30 05:23:34;;;;;;;11.05;5.93;;;;;;;19.32;100.00;100428.66;5088506;28;20028;-73
2023/06/30 05:25:59;;;;;;;12.35;6.30;;;;;;;19.38;100.00;100430.41;5087256;28;20055;-76
2023/06/30 05:28:25;;;;;;;10.10;6.78;;;;;;;19.48;100.00;100424.28;5086328;28;20059;-76
2023/06/30 05:30:50;;;;;;;11.73;6.43;;;;;;;19.64;100.00;100426.88;5070362;28;20162;-78
2023/06/30 05:33:16;;;;;;;7.90;6.00;;;;;;;19.74;100.00;100431.25;5070829;28;20071;-73
2023/06/30 05:35:41;;;;;;;11.63;6.65;;;;;;;19.67;98.16;100413.78;5070502;28;20024;-73
2023/06/30 05:38:07;;;;;;;7.82;6.20;;;;;;;19.82;97.48;100433.84;5070485;28;20025;-77
2023/06/30 05:40:33;;;;;;;8.27;6.40;;;;;;;19.92;95.18;100443.47;5070556;28;20049;-75
2023/06/30 05:42:58;;;;;;;9.23;6.75;;;;;;;19.91;94.67;100446.09;5070391;28;20032;-72
2023/06/30 05:45:25;;;;;;;11.07;6.55;;;;;;;20.05;94.44;100444.34;5070184;28;20455;-73
2023/06/30 05:47:50;;;;;;;8.43;6.70;;;;;;;20.23;92.83;100446.00;5070537;28;20074;-72
2023/06/30 05:50:17;;;;;;;8.02;6.70;;;;;;;20.30;92.55;100446.84;5070443;28;20029;-73
2023/06/30 05:52:42;;;;;;;10.45;6.93;;;;;;;20.36;91.91;100438.97;5070492;28;20028;-74
2023/06/30 05:55:08;;;;;;;8.80;6.75;;;;;;;20.41;91.44;100431.97;5070291;28;20030;-76
2023/06/30 05:57:34;;;;;;;8.30;6.50;;;;;;;20.65;91.77;100453.72;5070564;28;20020;-75
2023/06/30 05:59:59;;;;;;;10.32;6.93;;;;;;;20.68;91.72;100456.31;5069941;28;20417;-76
2023/06/30 06:02:24;;;;;;;8.07;6.70;;;;;;;20.67;93.27;100450.22;5070219;28;20024;-75
2023/06/30 06:04:51;;;;;;;10.25;6.55;;;;;;;20.64;91.38;100458.06;5070340;28;20047;-75
2023/06/30 06:07:17;;;;;;;9.40;7.18;;;;;;;20.56;91.49;100435.38;5070373;28;20115;-74
2023/06/30 06:09:42;;;;;;;9.02;6.65;;;;;;;20.84;87.32;100455.38;5070440;28;20107;-71
2023/06/30 06:12:08;;;;;;;10.77;6.60;;;;;;;20.69;87.56;100455.44;5070096;28;20033;-74
2023/06/30 06:14:33;;;;;;;9.80;6.57;;;;;;;20.67;88.80;100447.59;5069732;28;20067;-74
2023/06/30 06:16:59;;;;;;;9.45;6.90;;;;;;;20.58;89.06;100421.38;5070159;28;20036;-75
2023/06/30 06:19:24;;;;;;;8.93;6.35;;;;;;;20.84;88.51;100450.13;5070123;28;20376;-72
2023/06/30 06:21:49;;;;;;;8.77;6.70;;;;;;;20.92;91.13;100459.72;5069995;28;20028;-74
2023/06/30 06:24:18;;;;;;;7.70;6.38;;;;;;;20.90;89.42;100450.97;5070084;28;20077;-76
2023/06/30 06:26:43;;;;;;;8.70;7.20;;;;;;;20.95;90.43;100454.47;5070287;28;20032;-74
2023/06/30 06:29:09;;;;;;;7.53;6.63;;;;;;;21.05;89.60;100458.78;5069396;28;20081;-73
2023/06/30 06:31:34;;;;;;;7.63;6.75;;;;;;;20.78;89.39;100408.19;5035911;28;20044;-71
2023/06/30 06:34:00;;;;;;;7.80;7.00;;;;;;;21.30;89.83;100455.97;5073931;28;20501;-74
2023/06/30 06:36:25;;;;;;;11.98;7.13;;;;;;;21.19;88.51;100455.19;5056089;28;20040;-74
2023/06/30 06:38:52;;;;;;;7.50;6.43;;;;;;;21.19;86.32;100453.41;5073910;28;20058;-75
2023/06/30 06:41:38;;;;;;;9.18;6.90;;;;;;;21.38;85.17;100445.41;5030819;28;20532;-72
2023/06/30 06:44:04;;;;;;;11.43;7.75;;;;;;;21.61;85.79;100445.25;5031383;28;20069;-75
2023/06/30 06:46:31;;;;;;;7.20;6.50;;;;;;;21.59;83.27;100442.63;5031269;28;20516;-74
2023/06/30 06:48:56;;;;;;;8.70;6.05;;;;;;;21.45;83.14;100405.09;5031428;28;20434;-76
2023/06/30 06:51:22;;;;;;;9.27;6.10;;;;;;;21.77;81.37;100432.81;5031369;28;20102;-76
2023/06/30 06:53:48;;;;;;;7.43;5.63;;;;;;;21.96;79.51;100449.28;5031294;28;20022;-76
2023/06/30 06:56:14;;;;;;;9.32;6.38;;;;;;;21.81;79.66;100427.53;5031060;28;20045;-74
2023/06/30 06:58:39;;;;;;;8.10;5.88;;;;;;;21.85;81.20;100445.91;5031099;28;20614;-73
2023/06/30 07:01:05;;;;;;;8.27;5.88;;;;;;;21.87;83.02;100438.84;5014591;28;20033;-76
2023/06/30 07:03:31;;;;;;;10.23;5.70;;;;;;;21.78;79.94;100414.44;5030982;28;20030;-73
2023/06/30 07:05:57;;;;;;;9.80;6.57;;;;;;;21.94;80.96;100435.28;4998095;28;20099;-76
2023/06/30 07:08:24;;;;;;;8.07;5.38;;;;;;;22.13;77.24;100436.81;5031068;28;20091;-75
2023/06/30 07:10:50;;;;;;;8.15;6.00;;;;;;;22.39;75.79;100440.94;5030664;28;20037;-73
2023/06/30 07:13:19;;;;;;;5.53;4.82;;;;;;;22.24;73.03;100438.44;5047871;28;20485;-73
2023/06/30 07:15:48;;;;;;;6.60;5.25;;;;;;;22.29;74.39;100432.25;5053294;28;20057;-76
2023/06/30 07:18:17;;;;;;;6.00;5.20;;;;;;;22.40;76.13;100428.66;5053183;28;20025;-72
2023/06/30 07:20:46;;;;;;;6.60;5.40;;;;;;;22.38;75.07;100430.41;5053366;28;20110;-73
2023/06/30 07:23:12;;;;;;;6.95;4.65;;;;;;;22.44;73.31;100431.25;5053006;28;20479;-73
2023/06/30 07:25:37;;;;;;;6.15;5.05;;;;;;;22.34;74.58;100407.66;5051738;28;20048;-74
2023/06/30 07:28:03;;;;;;;8.55;4.53;;;;;;;22.45;76.57;100417.19;5052721;28;20465;-75
2023/06/30 07:30:28;;;;;;;5.60;4.53;;;;;;;22.73;71.85;100437.88;5053192;28;20036;-73
2023/06/30 07:32:54;;;;;;;6.43;4.63;;;;;;;22.57;71.62;100407.41;5052925;28;20479;-78
2023/06/30 07:35:21;;;;;;;7.45;4.20;;;;;;;22.76;69.95;100437.81;5052720;28;20094;-74
2023/06/30 07:37:47;;;;;;;8.77;4.55;;;;;;;22.84;73.95;100428.94;5051582;28;20025;-76
2023/06/30 07:40:13;;;;;;;7.40;4.80;;;;;;;22.90;72.37;100423.59;5055194;28;20518;-76
2023/06/30 07:42:39;;;;;;;5.75;5.00;;;;;;;22.92;77.58;100411.28;5071481;28;20033;-73
2023/06/30 07:45:13;;;;;;;7.10;4.72;;;;;;;22.97;69.03;100400.66;5071019;28;20024;-76
2023/06/30 07:47:42;;;;;;;7.00;4.93;;;;;;;23.24;72.40;100423.97;5069547;28;20043;-75
2023/06/30 07:50:12;;;;;;;7.78;4.90;;;;;;;23.09;70.91;100427.69;5072267;28;20379;-73
2023/06/30 07:52:50;;;;;;;5.88;4.63;;;;;;;23.05;70.39;100420.75;5069593;28;20020;-75
2023/06/30 07:55:16;;;;;;;6.45;4.50;;;;;;;23.24;70.35;100407.28;5071376;28;20102;-77
2023/06/30 07:57:43;;;;;;;6.28;4.80;;;;;;;23.37;67.70;100411.47;5053909;28;20027;-78
2023/06/30 08:00:15;;;;;;;9.57;4.75;;;;;;;23.40;68.16;100411.41;5072464;28;20119;-73
2023/06/30 08:02:40;;;;;;;5.78;4.43;;;;;;;23.44;70.29;100404.34;5072424;28;20028;-75
2023/06/30 08:05:06;;;;;;;8.15;4.38;;;;;;;23.46;69.61;100412.19;5072053;28;20035;-75
2023/06/30 08:07:31;;;;;;;4.97;4.00;;;;;;;23.56;68.56;100408.50;5072407;28;20031;-74
2023/06/30 08:09:57;;;;;;;7.63;4.65;;;;;;;23.55;70.42;100409.41;5068610;28;20040;-72
2023/06/30 08:12:22;;;;;;;8.35;4.13;;;;;;;23.63;66.72;100403.97;5071917;28;20033;-74
2023/06/30 08:14:48;;;;;;;5.53;4.00;;;;;;;23.59;66.44;100397.94;5054301;28;20115;-72
2023/06/30 08:17:16;;;;;;;4.50;3.55;;;;;;;23.77;66.12;100407.25;5071513;28;20021;-78
2023/06/30 08:19:42;;;;;;;5.70;4.25;;;;;;;23.96;67.05;100410.41;5071481;28;20479;-72
2023/06/30 08:22:13;;;;;;;5.57;3.95;;;;;;;23.97;64.85;100401.63;5071481;28;20088;-73
2023/06/30 08:24:39;;;;;;;5.82;4.18;;;;;;;24.21;62.27;100402.00;5074771;28;20036;-72
2023/06/30 08:27:05;;;;;;;5.00;4.10;;;;;;;24.46;62.08;100399.75;5071704;28;20039;-74
2023/06/30 08:29:30;;;;;;;4.28;3.70;;;;;;;24.46;61.24;100399.75;5053970;28;20024;-74
2023/06/30 08:31:56;;;;;;;5.07;3.95;;;;;;;24.28;61.68;100397.50;5071062;28;20063;-73
2023/06/30 08:34:25;;;;;;;4.93;3.53;;;;;;;24.28;63.39;100390.44;5068353;28;20410;-74
2023/06/30 08:36:54;;;;;;;6.75;4.03;;;;;;;24.37;62.70;100400.81;5071445;28;20028;-73
2023/06/30 08:39:20;;;;;;;7.32;3.47;;;;;;;24.49;61.48;100385.63;5071977;28;20090;-75
2023/06/30 08:41:49;;;;;;;5.68;3.83;;;;;;;24.61;62.05;100398.53;5071471;28;20052;-71
2023/06/30 08:44:15;;;;;;;4.65;3.67;;;;;;;24.65;62.47;100391.44;5072014;28;20029;-72
2023/06/30 08:46:41;;;;;;;4.70;3.83;;;;;;;24.73;63.65;100388.63;5071321;28;20032;-71
2023/06/30 08:49:08;;;;;;;4.43;3.60;;;;;;;24.78;59.71;100387.59;5071685;28;20359;-73
2023/06/30 08:51:35;;;;;;;5.47;3.47;;;;;;;24.67;57.76;100379.06;5071389;28;20505;-73
2023/06/30 08:54:00;;;;;;;6.15;3.72;;;;;;;24.51;65.27;100342.44;5071276;28;20033;-74
2023/06/30 08:56:27;;;;;;;9.15;3.72;;;;;;;24.70;61.48;100373.75;5071387;28;20493;-74
2023/06/30 08:58:52;;;;;;;6.68;3.70;;;;;;;24.86;60.92;100377.75;5071384;28;20060;-74
2023/06/30 09:01:19;;;;;;;6.95;3.67;;;;;;;24.85;60.82;100369.88;5071215;28;20454;-74
2023/06/30 09:03:45;;;;;;;4.60;3.40;;;;;;;24.99;62.58;100372.16;5071542;28;20025;-72
2023/06/30 09:06:12;;;;;;;5.15;3.83;;;;;;;25.09;59.52;100365.75;5071506;28;20033;-74
2023/06/30 09:09:07;;;;;;;6.30;3.85;;;;;;;25.50;58.39;100365.63;5071111;28;20021;-72
2023/06/30 09:11:33;;;;;;;6.40;3.58;;;;;;;25.71;59.03;100363.28;5070944;28;20082;-73
2023/06/30 09:14:01;;;;;;;5.75;3.60;;;;;;;25.86;56.71;100357.59;5019316;28;20048;-73
2023/06/30 09:16:29;;;;;;;5.28;3.45;;;;;;;26.07;56.10;100365.84;5071264;28;20036;-75
2023/06/30 09:18:55;;;;;;;6.70;3.92;;;;;;;26.23;55.10;100361.84;5070981;28;20048;-77
2023/06/30 09:21:20;;;;;;;3.40;2.90;;;;;;;26.24;52.65;100360.06;5071172;28;20056;-73
2023/06/30 09:23:46;;;;;;;3.75;2.95;;;;;;;26.32;52.60;100358.91;5071099;28;20035;-75
2023/06/30 09:26:13;;;;;;;4.57;3.33;;;;;;;26.51;53.88;100353.06;5070649;28;20040;-73
2023/06/30 09:28:42;;;;;;;5.55;3.80;;;;;;;26.63;54.15;100350.00;5070865;28;20047;-77
2023/06/30 09:31:08;;;;;;;4.07;3.10;;;;;;;26.68;50.87;100346.34;5070746;28;20506;-74
2023/06/30 09:33:35;;;;;;;4.00;3.40;;;;;;;26.82;50.25;100349.47;5070346;28;20033;-72
2023/06/30 09:36:02;;;;;;;5.60;2.85;;;;;;;26.90;52.41;100344.75;5070699;28;20093;-72
2023/06/30 09:38:28;;;;;;;4.00;3.15;;;;;;;27.05;54.05;100345.19;5071144;28;20025;-75
2023/06/30 09:40:54;;;;;;;7.15;3.40;;;;;;;26.72;52.46;100334.75;5070521;28;20080;-72
2023/06/30 09:43:21;;;;;;;4.55;3.10;;;;;;;26.61;54.02;100308.63;5070952;28;20056;-72
2023/06/30 09:45:55;;;;;;;4.10;3.47;;;;;;;26.73;54.59;100324.13;5070853;28;20039;-75
2023/06/30 09:48:20;;;;;;;3.60;2.80;;;;;;;26.91;51.26;100317.34;5070868;28;20028;-75
2023/06/30 09:50:46;;;;;;;4.20;3.20;;;;;;;27.05;54.99;100323.97;5070600;28;20036;-75
2023/06/30 09:53:18;;;;;;;4.45;3.10;;;;;;;27.20;50.83;100322.59;5070204;28;20020;-75
2023/06/30 09:55:49;;;;;;;4.78;3.22;;;;;;;27.43;50.25;100324.47;5070455;28;20107;-72
2023/06/30 09:58:19;;;;;;;4.50;2.88;;;;;;;27.55;50.91;100301.94;5070540;28;20035;-74
2023/06/30 10:00:46;;;;;;;6.40;2.92;;;;;;;27.69;49.06;100312.03;5070476;28;20060;-79
2023/06/30 10:03:16;;;;;;;4.07;2.75;;;;;;;27.82;46.22;100312.47;5070734;28;20020;-78
2023/06/30 10:05:42;;;;;;;4.38;2.72;;;;;;;27.83;47.45;100315.06;5069625;28;20027;-75
2023/06/30 10:08:08;;;;;;;4.05;2.88;;;;;;;27.82;46.58;100301.84;5070470;28;20032;-74
2023/06/30 10:10:33;;;;;;;3.60;2.70;;;;;;;27.84;46.25;100298.22;5070577;28;20095;-72
2023/06/30 10:12:59;;;;;;;3.40;2.60;;;;;;;27.96;46.59;100290.72;5070042;28;20041;-72
2023/06/30 10:15:25;;;;;;;4.68;2.92;;;;;;;28.20;47.66;100299.53;5070434;28;20032;-78
2023/06/30 10:17:54;;;;;;;4.32;2.85;;;;;;;28.23;46.70;100292.31;5052669;28;20033;-74
2023/06/30 10:20:19;;;;;;;4.35;2.67;;;;;;;28.34;43.98;100286.59;5067398;28;20036;-76
2023/06/30 10:22:45;;;;;;;3.72;2.60;;;;;;;28.29;44.69;100283.25;5060573;28;20024;-73
2023/06/30 10:25:14;;;;;;;3.25;2.60;;;;;;;28.45;43.80;100288.81;5070655;28;20033;-75
2023/06/30 10:27:40;;;;;;;5.65;2.88;;;;;;;28.41;43.73;100289.84;5072096;28;20628;-74
2023/06/30 10:30:07;;;;;;;4.70;2.63;;;;;;;28.24;44.83;100283.44;5065423;28;20107;-76
2023/06/30 10:32:33;;;;;;;5.95;2.50;;;;;;;28.47;44.70;100278.97;5068948;28;20031;-72
2023/06/30 10:34:59;;;;;;;4.00;2.97;;;;;;;28.69;42.28;100286.09;5067485;28;20170;-77
2023/06/30 10:37:26;;;;;;;4.95;2.70;;;;;;;28.91;41.77;100278.06;5066007;28;20032;-76
2023/06/30 10:39:51;;;;;;;3.90;2.42;;;;;;;28.98;41.42;100284.00;5059450;28;20107;-74
2023/06/30 10:42:20;;;;;;;4.13;2.60;;;;;;;28.94;40.59;100283.28;5080067;28;20032;-75
2023/06/30 10:44:46;;;;;;;42.90;25.87;;;;;;;28.88;42.95;100271.09;5089770;28;20055;-75
2023/06/30 10:47:12;;;;;;;6.13;2.80;;;;;;;28.92;41.40;100265.66;5068839;28;20032;-77
2023/06/30 10:49:39;;;;;;;4.50;2.25;;;;;;;28.83;47.13;100266.94;5079279;28;20032;-75
2023/06/30 10:52:24;;;;;;;4.80;2.20;;;;;;;28.51;41.38;100263.78;5089811;28;20024;-77
2023/06/30 10:54:49;;;;;;;3.55;2.50;;;;;;;28.58;48.51;100263.47;5089081;28;20024;-76
2023/06/30 10:57:26;;;;;;;5.13;2.80;;;;;;;28.73;44.91;100262.00;5086923;28;20024;-76
2023/06/30 11:00:11;;;;;;;3.97;2.22;;;;;;;28.73;44.96;100258.47;5069227;28;20036;-74
2023/06/30 11:02:46;;;;;;;3.30;2.22;;;;;;;28.19;43.11;100265.97;5068913;28;20025;-76
2023/06/30 11:05:21;;;;;;;5.05;2.30;;;;;;;28.27;43.32;100260.34;5049474;28;20024;-76
2023/06/30 11:08:03;;;;;;;3.08;2.38;;;;;;;28.76;43.00;100253.03;5067439;28;20020;-77
2023/06/30 11:10:46;;;;;;;3.30;2.17;;;;;;;28.69;40.34;100249.78;5079015;28;20350;-77
2023/06/30 11:13:12;;;;;;;3.38;1.95;;;;;;;29.22;40.96;100236.88;5069007;28;20028;-77
2023/06/30 11:15:43;;;;;;;2.75;2.35;;;;;;;29.08;43.73;100237.50;5069242;28;20424;-76
2023/06/30 11:18:22;;;;;;;2.85;2.03;;;;;;;29.57;37.88;100238.91;5069432;28;20032;-76
2023/06/30 11:21:01;;;;;;;3.40;2.10;;;;;;;29.72;41.50;100229.34;5072188;28;20017;-77